createdAt,value
2022-10-12T00:01:20.517Z,5.20
2022-10-12T00:03:44.487Z,5.20
2022-10-12T00:06:10.882Z,5.20
2022-10-12T00:08:35.879Z,5.10
2022-10-12T00:10:59.406Z,5.10
2022-10-12T00:13:24.548Z,5.10
2022-10-12T00:15:48.058Z,5.10
2022-10-12T00:18:11.795Z,5.00
2022-10-12T00:20:35.615Z,5.00
2022-10-12T00:22:59.199Z,5.00
2022-10-12T00:25:22.724Z,5.00
2022-10-12T00:27:46.455Z,5.00
2022-10-12T00:30:13.820Z,5.00
2022-10-12T00:32:37.474Z,5.00
2022-10-12T00:35:00.975Z,4.90
2022-10-12T00:37:24.603Z,4.90
2022-10-12T00:39:49.559Z,4.90
2022-10-12T00:42:13.530Z,4.90
2022-10-12T00:44:41.593Z,4.90
2022-10-12T00:47:21.112Z,4.80
2022-10-12T00:49:47.788Z,4.80
2022-10-12T00:52:14.483Z,4.80
2022-10-12T00:54:43.585Z,4.80
2022-10-12T00:57:08.740Z,4.80
2022-10-12T00:59:38.217Z,4.80
2022-10-12T01:02:02.272Z,4.80
2022-10-12T01:04:27.812Z,4.70
2022-10-12T01:06:51.966Z,4.70
2022-10-12T01:09:16.146Z,4.70
2022-10-12T01:11:39.703Z,4.70
2022-10-12T01:14:03.811Z,4.70
2022-10-12T01:16:36.438Z,4.70
2022-10-12T01:19:10.062Z,4.70
2022-10-12T01:21:39.226Z,4.70
2022-10-12T01:24:25.940Z,4.60
2022-10-12T01:27:36.396Z,4.60
2022-10-12T01:30:13.351Z,4.60
2022-10-12T01:32:53.950Z,4.60
2022-10-12T01:35:23.982Z,4.50
2022-10-12T01:37:54.652Z,4.50
2022-10-12T01:40:30.719Z,4.50
2022-10-12T01:42:57.059Z,4.50
2022-10-12T01:45:22.058Z,4.50
2022-10-12T01:47:49.479Z,4.40
2022-10-12T01:50:15.650Z,4.40
2022-10-12T01:52:44.597Z,4.40
2022-10-12T01:55:19.141Z,4.40
2022-10-12T01:57:56.256Z,4.40
2022-10-12T02:00:21.892Z,4.40
2022-10-12T02:02:57.059Z,4.40
2022-10-12T02:05:30.483Z,4.40
2022-10-12T02:08:00.451Z,4.40
2022-10-12T02:10:29.458Z,4.40
2022-10-12T02:12:56.226Z,4.30
2022-10-12T02:15:24.058Z,4.30
2022-10-12T02:17:50.998Z,4.30
2022-10-12T02:20:18.722Z,4.30
2022-10-12T02:22:47.043Z,4.30
2022-10-12T02:25:13.980Z,4.20
2022-10-12T02:27:43.430Z,4.20
2022-10-12T02:30:09.340Z,4.20
2022-10-12T02:32:40.114Z,4.20
2022-10-12T02:35:09.067Z,4.20
2022-10-12T02:37:39.963Z,4.20
2022-10-12T02:40:11.727Z,4.20
2022-10-12T02:43:08.880Z,4.20
2022-10-12T02:45:30.898Z,4.10
2022-10-12T02:47:57.447Z,4.10
2022-10-12T02:50:22.943Z,4.10
2022-10-12T02:52:48.247Z,4.10
2022-10-12T02:55:13.166Z,4.00
2022-10-12T02:57:36.888Z,4.00
2022-10-12T03:00:00.746Z,4.00
2022-10-12T03:02:24.323Z,4.00
2022-10-12T03:04:49.304Z,4.00
2022-10-12T03:07:12.807Z,4.00
2022-10-12T03:09:36.487Z,4.00
2022-10-12T03:12:00.079Z,4.00
2022-10-12T03:14:23.911Z,4.00
2022-10-12T03:16:48.200Z,3.90
2022-10-12T03:19:11.927Z,3.90
2022-10-12T03:21:36.980Z,3.90
2022-10-12T03:24:00.638Z,3.90
2022-10-12T03:26:24.188Z,3.90
2022-10-12T03:28:47.903Z,3.90
2022-10-12T03:31:11.507Z,3.80
2022-10-12T03:33:35.124Z,3.90
2022-10-12T03:35:59.790Z,3.80
2022-10-12T03:38:24.789Z,3.80
2022-10-12T03:40:48.835Z,3.80
2022-10-12T03:43:13.319Z,3.80
2022-10-12T03:45:36.935Z,3.80
2022-10-12T03:48:04.637Z,3.70
2022-10-12T03:50:29.003Z,3.70
2022-10-12T03:52:52.597Z,3.70
2022-10-12T03:55:17.834Z,3.70
2022-10-12T03:57:41.431Z,3.70
2022-10-12T04:00:06.802Z,3.70
2022-10-12T04:02:34.879Z,3.70
2022-10-12T04:04:58.432Z,3.50
2022-10-12T04:07:21.997Z,3.60
2022-10-12T04:09:45.518Z,3.70
2022-10-12T04:12:10.507Z,3.60
2022-10-12T04:14:34.051Z,3.60
2022-10-12T04:16:57.676Z,3.60
2022-10-12T04:19:21.637Z,3.60
2022-10-12T04:21:45.219Z,3.60
2022-10-12T04:24:09.378Z,3.60
2022-10-12T04:26:32.982Z,3.60
2022-10-12T04:28:58.062Z,3.60
2022-10-12T04:31:21.782Z,3.60
2022-10-12T04:33:45.308Z,3.50
2022-10-12T04:36:09.470Z,3.50
2022-10-12T04:38:32.990Z,3.50
2022-10-12T04:40:57.755Z,3.50
2022-10-12T04:43:21.410Z,3.50
2022-10-12T04:45:46.524Z,3.50
2022-10-12T04:48:10.086Z,3.50
2022-10-12T04:50:33.675Z,3.50
2022-10-12T04:52:57.246Z,3.50
2022-10-12T04:55:20.846Z,3.50
2022-10-12T04:57:44.383Z,3.50
2022-10-12T05:00:09.655Z,3.50
2022-10-12T05:02:35.000Z,3.40
2022-10-12T05:04:58.635Z,3.40
2022-10-12T05:07:22.179Z,3.40
2022-10-12T05:09:45.759Z,3.40
2022-10-12T05:12:09.464Z,3.40
2022-10-12T05:14:35.823Z,3.40
2022-10-12T05:16:59.691Z,3.40
2022-10-12T05:19:24.665Z,3.40
2022-10-12T05:21:48.219Z,3.30
2022-10-12T05:24:12.820Z,3.30
2022-10-12T05:26:36.334Z,3.30
2022-10-12T05:29:00.058Z,3.30
2022-10-12T05:31:23.690Z,3.30
2022-10-12T05:33:47.260Z,3.30
2022-10-12T05:36:12.442Z,3.30
2022-10-12T05:38:36.119Z,3.20
2022-10-12T05:41:00.864Z,3.20
2022-10-12T05:43:25.180Z,3.30
2022-10-12T05:45:49.116Z,3.20
2022-10-12T05:48:12.723Z,3.20
2022-10-12T05:50:36.310Z,3.20
2022-10-12T05:53:01.316Z,3.20
2022-10-12T05:55:24.876Z,3.20
2022-10-12T05:57:52.013Z,3.30
2022-10-12T06:00:16.149Z,3.30
2022-10-12T06:02:40.102Z,3.30
2022-10-12T06:05:03.846Z,3.30
2022-10-12T06:07:27.460Z,3.30
2022-10-12T06:09:52.395Z,3.40
2022-10-12T06:12:16.410Z,3.40
2022-10-12T06:14:39.975Z,3.40
2022-10-12T06:17:03.572Z,3.40
2022-10-12T06:19:27.219Z,3.50
2022-10-12T06:21:50.880Z,3.50
2022-10-12T06:24:14.407Z,3.60
2022-10-12T06:26:39.392Z,3.70
2022-10-12T06:29:02.989Z,3.80
2022-10-12T06:31:27.046Z,4.10
2022-10-12T06:33:51.091Z,4.40
2022-10-12T06:36:14.736Z,4.70
2022-10-12T06:38:38.264Z,4.80
2022-10-12T06:41:01.824Z,4.90
2022-10-12T06:43:26.837Z,5.00
2022-10-12T06:45:50.507Z,5.00
2022-10-12T06:48:18.336Z,5.00
2022-10-12T06:50:42.632Z,5.00
2022-10-12T06:53:06.224Z,5.10
2022-10-12T06:55:29.931Z,5.10
2022-10-12T06:57:53.459Z,5.00
2022-10-12T07:00:19.281Z,5.10
2022-10-12T07:02:42.799Z,5.10
2022-10-12T07:05:07.947Z,5.20
2022-10-12T07:07:32.757Z,5.30
2022-10-12T07:09:56.431Z,5.30
2022-10-12T07:12:20.246Z,5.40
2022-10-12T07:14:43.879Z,5.40
2022-10-12T07:17:08.780Z,5.50
2022-10-12T07:19:32.358Z,5.60
2022-10-12T07:21:55.949Z,5.70
2022-10-12T07:24:19.553Z,5.80
2022-10-12T07:26:43.156Z,5.90
2022-10-12T07:29:06.787Z,6.00
2022-10-12T07:31:30.504Z,6.20
2022-10-12T07:33:56.331Z,6.30
2022-10-12T07:36:21.874Z,6.40
2022-10-12T07:38:45.870Z,6.60
2022-10-12T07:41:10.030Z,6.80
2022-10-12T07:43:33.795Z,7.00
2022-10-12T07:45:57.539Z,7.20
2022-10-12T07:48:21.356Z,7.30
2022-10-12T07:50:46.258Z,7.50
2022-10-12T07:53:09.899Z,7.70
2022-10-12T07:55:33.451Z,7.80
2022-10-12T07:57:57.044Z,8.00
2022-10-12T08:00:22.094Z,8.10
2022-10-12T08:02:45.723Z,8.30
2022-10-12T08:05:10.441Z,8.50
2022-10-12T08:07:35.474Z,8.80
2022-10-12T08:09:59.007Z,9.10
2022-10-12T08:12:22.723Z,9.50
2022-10-12T08:14:46.239Z,9.90
2022-10-12T08:17:09.895Z,10.50
2022-10-12T08:19:35.420Z,10.90
2022-10-12T08:21:59.151Z,11.30
2022-10-12T08:24:24.113Z,11.70
2022-10-12T08:26:48.920Z,12.00
2022-10-12T08:29:12.777Z,12.20
2022-10-12T08:31:36.843Z,12.30
2022-10-12T08:34:00.860Z,12.40
2022-10-12T08:36:24.515Z,12.50
2022-10-12T08:38:53.950Z,12.50
2022-10-12T08:41:40.875Z,12.50
2022-10-12T08:44:27.623Z,12.40
2022-10-12T08:46:57.000Z,12.40
2022-10-12T08:49:23.880Z,12.40
2022-10-12T08:51:51.448Z,12.50
2022-10-12T08:54:17.158Z,12.60
2022-10-12T08:56:42.692Z,12.70
2022-10-12T08:59:06.710Z,12.90
2022-10-12T09:01:37.402Z,13.10
2022-10-12T09:04:18.751Z,13.40
2022-10-12T09:06:48.985Z,13.60
2022-10-12T09:09:33.635Z,13.70
2022-10-12T09:12:16.696Z,13.80
2022-10-12T09:14:42.666Z,14.00
2022-10-12T09:17:28.803Z,14.10
2022-10-12T09:20:02.688Z,14.10
2022-10-12T09:22:26.471Z,14.30
2022-10-12T09:24:52.985Z,14.40
2022-10-12T09:27:20.964Z,14.80
2022-10-12T09:29:48.064Z,15.00
2022-10-12T09:32:42.136Z,15.30
2022-10-12T09:35:08.160Z,15.40
2022-10-12T09:37:34.712Z,16.00
2022-10-12T09:39:59.374Z,16.20
2022-10-12T09:42:24.361Z,16.60
2022-10-12T09:44:50.463Z,17.00
2022-10-12T09:47:29.884Z,17.20
2022-10-12T09:49:58.458Z,17.40
2022-10-12T09:52:26.563Z,17.50
2022-10-12T09:54:55.508Z,18.00
2022-10-12T09:57:25.221Z,18.30
2022-10-12T09:59:49.267Z,18.30
2022-10-12T10:02:17.533Z,18.70
2022-10-12T10:04:42.794Z,18.70
2022-10-12T10:07:28.298Z,18.90
2022-10-12T10:10:18.145Z,18.90
2022-10-12T10:12:50.731Z,19.30
2022-10-12T10:15:23.898Z,19.30
2022-10-12T10:17:53.839Z,19.50
2022-10-12T10:20:33.840Z,19.50
2022-10-12T10:22:58.425Z,19.50
2022-10-12T10:25:25.028Z,19.60
2022-10-12T10:28:24.982Z,19.70
2022-10-12T10:31:00.635Z,19.70
2022-10-12T10:33:24.242Z,19.50
2022-10-12T10:36:02.258Z,19.30
2022-10-12T10:38:26.215Z,19.60
2022-10-12T10:40:53.181Z,19.80
2022-10-12T10:43:29.464Z,19.70
2022-10-12T10:45:57.369Z,19.60
2022-10-12T10:48:24.056Z,19.50
2022-10-12T10:50:56.540Z,19.70
2022-10-12T10:53:23.203Z,19.80
2022-10-12T10:55:51.038Z,19.80
2022-10-12T10:58:27.666Z,19.60
2022-10-12T11:00:53.097Z,19.60
2022-10-12T11:03:25.165Z,19.80
2022-10-12T11:05:56.311Z,19.90
2022-10-12T11:08:25.154Z,19.50
2022-10-12T11:10:54.917Z,19.30
2022-10-12T11:13:22.499Z,19.10
2022-10-12T11:15:50.719Z,19.10
2022-10-12T11:18:21.774Z,19.20
2022-10-12T11:20:54.027Z,19.20
2022-10-12T11:23:30.079Z,19.20
2022-10-12T11:26:13.542Z,19.10
2022-10-12T11:28:39.202Z,19.00
2022-10-12T11:31:03.716Z,19.10
2022-10-12T11:33:35.196Z,19.10
2022-10-12T11:36:00.295Z,18.90
2022-10-12T11:38:32.187Z,18.70
2022-10-12T11:41:19.015Z,18.80
2022-10-12T11:43:51.719Z,18.60
2022-10-12T11:46:20.289Z,18.70
2022-10-12T11:48:51.969Z,18.70
2022-10-12T11:51:15.558Z,18.70
2022-10-12T11:53:54.421Z,18.80
2022-10-12T11:56:25.556Z,18.80
2022-10-12T11:59:00.997Z,18.70
2022-10-12T12:01:45.114Z,18.30
2022-10-12T12:04:42.825Z,18.00
2022-10-12T12:07:41.368Z,17.90
2022-10-12T12:11:04.277Z,17.90
2022-10-12T12:13:28.581Z,18.00
2022-10-12T12:16:23.917Z,18.00
2022-10-12T12:19:41.845Z,17.90
2022-10-12T12:22:50.451Z,17.80
2022-10-12T12:25:21.535Z,17.70
2022-10-12T12:27:49.805Z,17.70
2022-10-12T12:30:42.048Z,17.40
2022-10-12T12:33:27.070Z,17.40
2022-10-12T12:35:56.059Z,17.50
2022-10-12T12:38:27.866Z,17.70
2022-10-12T12:41:11.545Z,17.60
2022-10-12T12:43:59.170Z,17.70
2022-10-12T12:46:23.574Z,17.80
2022-10-12T12:49:04.865Z,17.80
2022-10-12T12:51:44.475Z,17.60
2022-10-12T12:54:20.680Z,17.70
2022-10-12T12:57:16.384Z,17.70
2022-10-12T13:00:15.134Z,17.70
2022-10-12T13:03:22.703Z,17.50
2022-10-12T13:06:48.412Z,17.40
2022-10-12T13:09:53.140Z,17.40
2022-10-12T13:12:47.992Z,17.50
2022-10-12T13:15:32.043Z,17.50
2022-10-12T13:18:47.745Z,17.20
2022-10-12T13:21:20.576Z,17.00
2022-10-12T13:23:49.333Z,16.80
2022-10-12T13:26:20.774Z,16.90
2022-10-12T13:28:44.772Z,16.80
2022-10-12T13:31:13.757Z,16.80
2022-10-12T13:33:45.729Z,16.90
2022-10-12T13:36:18.134Z,16.90
2022-10-12T13:38:41.767Z,16.70
2022-10-12T13:41:10.019Z,16.50
2022-10-12T13:43:44.887Z,16.40
2022-10-12T13:46:09.242Z,16.40
2022-10-12T13:48:58.603Z,16.30
2022-10-12T13:51:25.566Z,16.30
2022-10-12T13:53:49.196Z,16.20
2022-10-12T13:56:18.331Z,16.20
2022-10-12T13:58:43.463Z,16.20
2022-10-12T14:01:07.349Z,16.20
2022-10-12T14:03:39.679Z,16.10
2022-10-12T14:06:04.497Z,16.10
2022-10-12T14:08:29.387Z,16.20
2022-10-12T14:10:53.595Z,16.10
2022-10-12T14:13:26.688Z,16.10
2022-10-12T14:15:51.852Z,16.10
2022-10-12T14:18:39.787Z,16.00
2022-10-12T14:21:14.260Z,16.00
2022-10-12T14:23:43.300Z,15.90
2022-10-12T14:26:15.735Z,15.90
2022-10-12T14:28:39.450Z,15.90
2022-10-12T14:31:04.842Z,15.90
2022-10-12T14:33:29.347Z,15.90
2022-10-12T14:35:54.268Z,15.90
2022-10-12T14:38:39.758Z,15.80
2022-10-12T14:41:35.477Z,15.80
2022-10-12T14:44:11.891Z,15.80
2022-10-12T14:46:37.801Z,15.80
2022-10-12T14:49:01.645Z,15.70
2022-10-12T14:51:25.560Z,15.70
2022-10-12T14:54:00.044Z,15.60
2022-10-12T14:56:23.695Z,15.50
2022-10-12T14:58:47.253Z,15.50
2022-10-12T15:01:10.962Z,15.50
2022-10-12T15:03:36.105Z,15.40
2022-10-12T15:05:59.995Z,15.40
2022-10-12T15:08:23.517Z,15.30
2022-10-12T15:10:51.209Z,15.30
2022-10-12T15:13:15.292Z,15.30
2022-10-12T15:15:43.847Z,15.30
2022-10-12T15:18:08.377Z,15.20
2022-10-12T15:20:34.107Z,15.20
2022-10-12T15:22:57.687Z,15.10
2022-10-12T15:25:26.022Z,15.00
2022-10-12T15:27:49.535Z,14.90
2022-10-12T15:30:14.817Z,14.90
2022-10-12T15:32:38.522Z,14.80
2022-10-12T15:35:02.469Z,14.70
2022-10-12T15:37:30.399Z,14.70
2022-10-12T15:39:54.012Z,14.60
2022-10-12T15:42:17.494Z,14.50
2022-10-12T15:44:42.237Z,14.40
2022-10-12T15:47:05.773Z,14.30
2022-10-12T15:49:29.392Z,14.30
2022-10-12T15:51:55.144Z,14.20
2022-10-12T15:54:20.488Z,14.10
2022-10-12T15:56:44.075Z,14.10
2022-10-12T15:59:07.955Z,14.00
2022-10-12T16:01:31.925Z,13.80
2022-10-12T16:03:56.209Z,13.80
2022-10-12T16:06:19.986Z,13.70
2022-10-12T16:08:43.795Z,13.60
2022-10-12T16:11:12.799Z,13.50
2022-10-12T16:13:42.915Z,13.40
2022-10-12T16:16:09.505Z,13.30
2022-10-12T16:18:33.274Z,13.10
2022-10-12T16:20:56.928Z,13.00
2022-10-12T16:23:23.578Z,12.90
2022-10-12T16:25:47.384Z,12.80
2022-10-12T16:28:13.155Z,12.70
2022-10-12T16:30:36.855Z,12.60
2022-10-12T16:33:00.515Z,12.50
2022-10-12T16:35:24.347Z,12.40
2022-10-12T16:37:48.078Z,12.30
2022-10-12T16:40:13.443Z,12.20
2022-10-12T16:42:37.089Z,12.20
2022-10-12T16:45:02.425Z,12.00
2022-10-12T16:47:26.127Z,11.90
2022-10-12T16:49:52.071Z,11.90
2022-10-12T16:52:16.458Z,11.80
2022-10-12T16:54:40.740Z,11.70
2022-10-12T16:57:04.554Z,11.60
2022-10-12T16:59:28.708Z,11.50
2022-10-12T17:01:53.878Z,11.40
2022-10-12T17:04:17.447Z,11.30
2022-10-12T17:06:41.989Z,11.30
2022-10-12T17:09:06.602Z,11.10
2022-10-12T17:11:30.361Z,11.10
2022-10-12T17:13:55.858Z,11.00
2022-10-12T17:16:37.203Z,10.90
2022-10-12T17:19:02.211Z,10.80
2022-10-12T17:21:26.127Z,10.80
2022-10-12T17:23:49.719Z,10.70
2022-10-12T17:26:13.468Z,10.60
2022-10-12T17:28:38.607Z,10.50
2022-10-12T17:31:10.714Z,10.50
2022-10-12T17:33:35.540Z,10.40
2022-10-12T17:36:00.895Z,10.30
2022-10-12T17:38:24.671Z,10.20
2022-10-12T17:40:51.157Z,10.20
2022-10-12T17:43:14.731Z,10.10
2022-10-12T17:45:41.336Z,10.00
2022-10-12T17:48:05.256Z,10.00
2022-10-12T17:50:28.823Z,9.90
2022-10-12T17:52:53.793Z,9.80
2022-10-12T17:55:36.519Z,9.70
2022-10-12T17:58:01.912Z,9.70
2022-10-12T18:00:25.560Z,9.60
2022-10-12T18:02:49.363Z,9.60
2022-10-12T18:05:12.939Z,9.50
2022-10-12T18:07:37.502Z,9.50
2022-10-12T18:10:02.422Z,9.40
2022-10-12T18:12:26.106Z,9.40
2022-10-12T18:14:49.631Z,9.30
2022-10-12T18:17:13.288Z,9.30
2022-10-12T18:19:36.945Z,9.20
2022-10-12T18:22:00.562Z,9.20
2022-10-12T18:24:24.086Z,9.10
2022-10-12T18:26:49.280Z,9.10
2022-10-12T18:29:16.763Z,9.00
2022-10-12T18:31:40.555Z,8.90
2022-10-12T18:34:04.579Z,8.90
2022-10-12T18:36:28.758Z,8.80
2022-10-12T18:38:52.823Z,8.80
2022-10-12T18:41:22.110Z,8.70
2022-10-12T18:43:47.182Z,8.70
2022-10-12T18:46:13.072Z,8.70
2022-10-12T18:48:36.752Z,8.60
2022-10-12T18:51:06.141Z,8.60
2022-10-12T18:53:29.660Z,8.50
2022-10-12T18:55:53.214Z,8.50
2022-10-12T18:58:16.814Z,8.40
2022-10-12T19:00:42.896Z,8.40
2022-10-12T19:03:06.556Z,8.40
2022-10-12T19:05:30.723Z,8.30
2022-10-12T19:07:54.367Z,8.20
2022-10-12T19:10:18.137Z,8.20
2022-10-12T19:12:45.622Z,8.20
2022-10-12T19:15:10.693Z,8.10
2022-10-12T19:17:35.729Z,8.10
2022-10-12T19:19:59.691Z,8.10
2022-10-12T19:22:23.416Z,8.00
2022-10-12T19:24:48.179Z,8.00
2022-10-12T19:27:11.796Z,7.90
2022-10-12T19:29:35.402Z,7.90
2022-10-12T19:31:59.601Z,7.90
2022-10-12T19:34:24.692Z,7.80
2022-10-12T19:36:49.276Z,7.80
2022-10-12T19:39:16.755Z,7.70
2022-10-12T19:41:40.561Z,7.70
2022-10-12T19:44:04.181Z,7.60
2022-10-12T19:46:28.292Z,7.60
2022-10-12T19:48:54.057Z,7.60
2022-10-12T19:51:21.255Z,7.60
2022-10-12T19:53:45.139Z,7.50
2022-10-12T19:56:11.370Z,7.50
2022-10-12T19:58:35.255Z,7.50
2022-10-12T20:01:02.514Z,7.40
2022-10-12T20:03:26.191Z,7.40
2022-10-12T20:05:49.738Z,7.40
2022-10-12T20:08:14.864Z,7.30
2022-10-12T20:10:38.860Z,7.30
2022-10-12T20:13:02.414Z,7.20
2022-10-12T20:15:25.976Z,7.20
2022-10-12T20:17:49.511Z,7.20
2022-10-12T20:20:13.589Z,7.20
2022-10-12T20:22:37.233Z,7.10
2022-10-12T20:25:06.915Z,7.10
2022-10-12T20:27:33.804Z,7.00
2022-10-12T20:29:57.320Z,7.00
2022-10-12T20:32:21.119Z,7.00
2022-10-12T20:34:44.786Z,6.90
2022-10-12T20:37:08.391Z,6.90
2022-10-12T20:39:33.648Z,6.90
2022-10-12T20:41:58.616Z,6.80
2022-10-12T20:44:22.815Z,6.90
2022-10-12T20:46:51.620Z,6.80
2022-10-12T20:49:15.156Z,6.80
2022-10-12T20:51:42.835Z,6.80
2022-10-12T20:54:08.905Z,6.70
2022-10-12T20:56:36.003Z,6.70
2022-10-12T20:59:02.009Z,6.70
2022-10-12T21:01:27.063Z,6.60
2022-10-12T21:03:50.611Z,6.60
2022-10-12T21:06:17.328Z,6.60
2022-10-12T21:08:41.787Z,6.60
2022-10-12T21:11:06.641Z,6.50
2022-10-12T21:13:31.794Z,6.50
2022-10-12T21:15:56.839Z,6.50
2022-10-12T21:18:20.696Z,6.50
2022-10-12T21:20:44.292Z,6.40
2022-10-12T21:23:07.829Z,6.40
2022-10-12T21:25:31.415Z,6.40
2022-10-12T21:27:54.936Z,6.40
2022-10-12T21:30:18.739Z,6.40
2022-10-12T21:32:43.643Z,6.30
2022-10-12T21:35:08.104Z,6.30
2022-10-12T21:37:31.640Z,6.30
2022-10-12T21:39:55.220Z,6.30
2022-10-12T21:42:19.017Z,6.20
2022-10-12T21:44:42.890Z,6.20
2022-10-12T21:47:06.554Z,6.20
2022-10-12T21:49:31.549Z,6.10
2022-10-12T21:51:55.090Z,6.10
2022-10-12T21:54:18.644Z,6.10
2022-10-12T21:56:42.529Z,6.10
2022-10-12T21:59:07.490Z,6.10
2022-10-12T22:01:34.658Z,6.10
2022-10-12T22:04:00.887Z,6.00
2022-10-12T22:06:28.043Z,6.00
2022-10-12T22:08:55.983Z,6.00
2022-10-12T22:11:19.949Z,6.00
2022-10-12T22:13:43.566Z,5.90
2022-10-12T22:16:10.023Z,5.90
2022-10-12T22:18:33.910Z,5.90
2022-10-12T22:20:57.797Z,5.90
2022-10-12T22:23:23.307Z,5.90
2022-10-12T22:25:47.372Z,5.90
2022-10-12T22:28:11.059Z,5.80
2022-10-12T22:30:40.754Z,5.80
2022-10-12T22:33:04.335Z,5.80
2022-10-12T22:35:27.892Z,5.80
2022-10-12T22:37:51.501Z,5.70
2022-10-12T22:40:16.636Z,5.70
2022-10-12T22:42:40.219Z,5.70
2022-10-12T22:45:03.798Z,5.70
2022-10-12T22:47:27.369Z,5.70
2022-10-12T22:49:53.108Z,5.70
2022-10-12T22:52:17.079Z,5.60
2022-10-12T22:54:40.787Z,5.60
2022-10-12T22:57:05.881Z,5.60
2022-10-12T22:59:31.407Z,5.50
2022-10-12T23:01:54.999Z,5.50
2022-10-12T23:04:19.024Z,5.50
2022-10-12T23:06:42.591Z,5.50
2022-10-12T23:09:06.523Z,5.50
2022-10-12T23:11:31.484Z,5.50
2022-10-12T23:13:57.914Z,5.40
2022-10-12T23:16:24.939Z,5.40
2022-10-12T23:18:48.877Z,5.40
2022-10-12T23:21:15.587Z,5.40
2022-10-12T23:23:40.385Z,5.40
2022-10-12T23:26:07.007Z,5.40
2022-10-12T23:28:30.680Z,5.30
2022-10-12T23:30:55.884Z,5.30
2022-10-12T23:33:19.468Z,5.30
2022-10-12T23:35:43.063Z,5.30
2022-10-12T23:38:06.643Z,5.30
2022-10-12T23:40:30.231Z,5.30
2022-10-12T23:42:54.325Z,5.20
2022-10-12T23:45:18.079Z,5.20
2022-10-12T23:47:45.234Z,5.20
2022-10-12T23:50:09.572Z,5.20
2022-10-12T23:52:33.105Z,5.20
2022-10-12T23:54:56.671Z,5.10
2022-10-12T23:57:45.037Z,5.10
